Terminal Aerodrome Forecast
Issued by NWS

Home | Current Version | Previous Version | Graphics & Text | Print | Product List | Glossary On
Versions: 1 2 3 4 5 6 7 8 9 10 11 12 13 14 15 16 17 18 19 20 21 22 23 24 25
000
FTUS41 KCLE 022300
TAFFDY
TAF
KFDY 022334Z 0300/0324 16005KT P6SM BKN200
     FM031400 14010KT 6SM -SN BKN050 OVC090
     FM031600 12010KT 4SM -FZRAPL BR BKN015 OVC050
     FM031900 20015KT 2SM -RA BR BKN005 OVC015 WS020/22045KT=

USA.gov is the U.S. government's official web portal to all federal, state and local government web resources and services.